createdAt,value
2018-11-01T00:01:30.344Z,6.90
2018-11-01T00:06:24.827Z,6.90
2018-11-01T00:11:19.244Z,6.90
2018-11-01T00:16:13.696Z,6.90
2018-11-01T00:21:09.360Z,6.90
2018-11-01T00:26:03.799Z,6.80
2018-11-01T00:30:58.347Z,6.80
2018-11-01T00:35:52.812Z,6.70
2018-11-01T00:40:47.283Z,6.50
2018-11-01T00:45:41.809Z,6.70
2018-11-01T00:50:36.245Z,6.60
2018-11-01T00:55:30.812Z,6.50
2018-11-01T01:00:25.480Z,6.40
2018-11-01T01:05:20.104Z,6.40
2018-11-01T01:10:16.247Z,6.20
2018-11-01T01:15:10.707Z,6.20
2018-11-01T01:20:08.154Z,6.10
2018-11-01T01:25:02.619Z,6.10
2018-11-01T01:29:57.051Z,6.00
2018-11-01T01:34:51.572Z,6.00
2018-11-01T01:39:45.988Z,5.90
2018-11-01T01:44:40.496Z,5.90
2018-11-01T01:49:34.944Z,5.90
2018-11-01T01:54:29.852Z,5.90
2018-11-01T01:59:24.280Z,5.80
2018-11-01T02:04:18.851Z,5.70
2018-11-01T02:09:13.983Z,5.70
2018-11-01T02:14:08.533Z,5.60
2018-11-01T02:19:02.987Z,5.70
2018-11-01T02:23:57.425Z,5.60
2018-11-01T02:28:51.852Z,5.60
2018-11-01T02:33:46.383Z,5.50
2018-11-01T02:38:40.881Z,5.50
2018-11-01T02:43:35.287Z,5.60
2018-11-01T02:48:29.753Z,5.70
2018-11-01T02:53:24.176Z,5.60
2018-11-01T02:58:18.623Z,5.40
2018-11-01T03:03:13.092Z,5.30
2018-11-01T03:08:07.608Z,5.20
2018-11-01T03:13:02.222Z,5.30
2018-11-01T03:17:56.660Z,5.30
2018-11-01T03:22:51.144Z,5.20
2018-11-01T03:27:45.704Z,5.20
2018-11-01T03:32:40.167Z,5.30
2018-11-01T03:37:34.596Z,5.20
2018-11-01T03:42:29.083Z,5.20
2018-11-01T03:47:23.508Z,5.20
2018-11-01T03:52:17.976Z,5.20
2018-11-01T03:57:12.383Z,5.30
2018-11-01T04:02:07.192Z,5.40
2018-11-01T04:07:01.613Z,5.40
2018-11-01T04:11:56.042Z,5.40
2018-11-01T04:16:50.501Z,5.40
2018-11-01T04:21:44.939Z,5.40
2018-11-01T04:26:39.400Z,5.40
2018-11-01T04:31:33.902Z,5.50
2018-11-01T04:36:28.379Z,5.60
2018-11-01T04:41:22.834Z,5.60
2018-11-01T04:46:17.261Z,5.50
2018-11-01T04:51:11.680Z,5.50
2018-11-01T04:56:06.902Z,5.40
2018-11-01T05:01:01.384Z,5.50
2018-11-01T05:05:55.846Z,5.50
2018-11-01T05:10:50.302Z,5.50
2018-11-01T05:15:44.777Z,5.50
2018-11-01T05:20:39.227Z,5.60
2018-11-01T05:25:33.776Z,5.70
2018-11-01T05:30:28.414Z,5.70
2018-11-01T05:35:22.880Z,5.80
2018-11-01T05:40:17.325Z,5.80
2018-11-01T05:45:12.100Z,5.80
2018-11-01T05:50:07.468Z,5.80
2018-11-01T05:55:01.933Z,5.80
2018-11-01T05:59:56.408Z,6.00
2018-11-01T06:04:50.857Z,6.00
2018-11-01T06:09:45.393Z,6.10
2018-11-01T06:14:39.852Z,6.20
2018-11-01T06:19:34.311Z,6.20
2018-11-01T06:24:28.772Z,6.20
2018-11-01T06:29:23.215Z,6.20
2018-11-01T06:34:21.872Z,6.30
2018-11-01T06:39:20.549Z,6.40
2018-11-01T06:44:15.013Z,6.40
2018-11-01T06:49:09.440Z,6.40
2018-11-01T06:54:03.879Z,6.60
2018-11-01T06:58:58.426Z,6.60
2018-11-01T07:03:52.821Z,6.70
2018-11-01T07:08:47.279Z,6.90
2018-11-01T07:13:41.735Z,6.90
2018-11-01T07:18:36.249Z,7.00
2018-11-01T07:23:30.604Z,7.00
2018-11-01T07:28:26.012Z,7.10
2018-11-01T07:33:20.470Z,7.20
2018-11-01T07:38:14.892Z,7.20
2018-11-01T07:43:09.342Z,7.20
2018-11-01T07:48:03.798Z,7.30
2018-11-01T07:52:58.374Z,7.50
2018-11-01T07:57:52.752Z,7.40
2018-11-01T08:02:48.016Z,7.50
2018-11-01T08:07:42.856Z,7.60
2018-11-01T08:12:37.323Z,7.80
2018-11-01T08:17:31.771Z,7.80
2018-11-01T08:22:26.241Z,7.90
2018-11-01T08:27:20.684Z,8.00
2018-11-01T08:32:15.144Z,8.20
2018-11-01T08:37:09.688Z,8.20
2018-11-01T08:42:04.177Z,8.30
2018-11-01T08:46:58.685Z,8.30
2018-11-01T08:51:53.188Z,8.20
2018-11-01T08:56:47.644Z,8.30
2018-11-01T09:01:42.072Z,8.60
2018-11-01T09:06:36.574Z,8.60
2018-11-01T09:11:31.132Z,8.70
2018-11-01T09:16:25.619Z,8.70
2018-11-01T09:21:20.072Z,8.80
2018-11-01T09:26:14.793Z,8.80
2018-11-01T09:31:09.288Z,9.00
2018-11-01T09:36:03.861Z,9.50
2018-11-01T09:40:58.496Z,10.00
2018-11-01T09:45:53.220Z,10.60
2018-11-01T09:50:47.733Z,10.70
2018-11-01T09:55:42.226Z,10.90
2018-11-01T10:00:36.788Z,11.00
2018-11-01T10:05:31.247Z,10.90
2018-11-01T10:10:25.849Z,11.00
2018-11-01T10:15:20.362Z,11.00
2018-11-01T10:20:15.381Z,11.10
2018-11-01T10:25:11.652Z,11.30
2018-11-01T10:30:09.032Z,11.30
2018-11-01T10:35:03.605Z,11.40
2018-11-01T10:39:58.029Z,11.30
2018-11-01T10:44:52.726Z,11.40
2018-11-01T10:49:47.187Z,11.70
2018-11-01T10:54:41.608Z,11.70
2018-11-01T10:59:36.042Z,11.70
2018-11-01T11:04:30.541Z,11.90
2018-11-01T11:09:25.013Z,12.20
2018-11-01T11:14:19.500Z,12.40
2018-11-01T11:19:14.054Z,12.30
2018-11-01T11:24:08.493Z,12.30
2018-11-01T11:29:02.933Z,12.40
2018-11-01T11:33:57.404Z,12.50
2018-11-01T11:38:51.889Z,12.60
2018-11-01T11:43:46.349Z,12.70
2018-11-01T11:48:41.048Z,12.60
2018-11-01T11:53:35.565Z,12.80
2018-11-01T11:58:30.090Z,12.80
2018-11-01T12:03:24.512Z,12.90
2018-11-01T12:08:18.940Z,13.00
2018-11-01T12:13:13.396Z,13.10
2018-11-01T12:18:07.831Z,13.20
2018-11-01T12:23:02.261Z,13.20
2018-11-01T12:27:56.718Z,13.30
2018-11-01T12:32:51.196Z,13.40
2018-11-01T12:37:45.716Z,13.40
2018-11-01T12:42:40.212Z,13.50
2018-11-01T12:47:34.617Z,13.60
2018-11-01T12:52:29.048Z,13.60
2018-11-01T12:57:23.529Z,13.70
2018-11-01T13:02:18.084Z,13.80
2018-11-01T13:07:12.492Z,13.70
2018-11-01T13:12:07.791Z,13.70
2018-11-01T13:17:02.420Z,13.80
2018-11-01T13:21:56.884Z,13.90
2018-11-01T13:26:51.512Z,14.00
2018-11-01T13:31:46.078Z,14.00
2018-11-01T13:36:40.624Z,14.00
2018-11-01T13:41:35.228Z,14.10
2018-11-01T13:46:29.669Z,14.10
2018-11-01T13:51:24.098Z,14.20
2018-11-01T13:56:18.629Z,14.20
2018-11-01T14:01:13.098Z,14.20
2018-11-01T14:06:07.816Z,14.20
2018-11-01T14:11:02.276Z,14.20
2018-11-01T14:15:56.692Z,14.10
2018-11-01T14:20:51.186Z,14.00
2018-11-01T14:25:45.767Z,14.20
2018-11-01T14:30:40.213Z,14.20
2018-11-01T14:35:34.649Z,14.30
2018-11-01T14:40:29.048Z,14.20
2018-11-01T14:45:23.542Z,14.10
2018-11-01T14:50:18.198Z,14.00
2018-11-01T14:55:13.176Z,14.10
2018-11-01T15:00:08.910Z,14.00
2018-11-01T15:05:03.445Z,13.90
2018-11-01T15:09:57.880Z,13.80
2018-11-01T15:14:52.288Z,13.70
2018-11-01T15:19:46.834Z,13.50
2018-11-01T15:24:41.356Z,13.30
2018-11-01T15:29:35.824Z,13.00
2018-11-01T15:34:31.157Z,12.80
2018-11-01T15:39:25.628Z,12.60
2018-11-01T15:44:20.107Z,12.50
2018-11-01T15:49:15.647Z,12.40
2018-11-01T15:54:10.155Z,12.20
2018-11-01T15:59:04.640Z,12.00
2018-11-01T16:03:59.225Z,11.80
2018-11-01T16:08:53.679Z,11.60
2018-11-01T16:13:48.249Z,11.50
2018-11-01T16:18:42.795Z,11.40
2018-11-01T16:23:37.280Z,11.30
2018-11-01T16:28:31.812Z,11.20
2018-11-01T16:33:26.332Z,11.00
2018-11-01T16:38:20.856Z,10.80
2018-11-01T16:43:15.380Z,10.60
2018-11-01T16:48:09.848Z,10.50
2018-11-01T16:53:04.404Z,10.50
2018-11-01T16:57:58.977Z,10.30
2018-11-01T17:02:53.424Z,10.10
2018-11-01T17:07:47.856Z,10.00
2018-11-01T17:12:42.316Z,10.00
2018-11-01T17:17:36.776Z,10.00
2018-11-01T17:22:31.461Z,9.80
2018-11-01T17:27:26.328Z,9.70
2018-11-01T17:32:20.842Z,9.60
2018-11-01T17:37:15.384Z,9.70
2018-11-01T17:42:09.933Z,9.60
2018-11-01T17:47:04.474Z,9.70
2018-11-01T17:51:59.009Z,9.60
2018-11-01T17:56:53.440Z,9.30
2018-11-01T18:01:47.950Z,9.10
2018-11-01T18:06:42.574Z,9.10
2018-11-01T18:11:37.165Z,9.20
2018-11-01T18:16:31.952Z,9.20
2018-11-01T18:21:26.529Z,9.30
2018-11-01T18:26:21.008Z,9.50
2018-11-01T18:31:15.515Z,9.50
2018-11-01T18:36:10.477Z,9.60
2018-11-01T18:41:05.256Z,9.50
2018-11-01T18:45:59.629Z,9.40
2018-11-01T18:50:54.169Z,9.30
2018-11-01T18:55:48.658Z,9.40
2018-11-01T19:00:43.153Z,9.60
2018-11-01T19:05:37.554Z,9.80
2018-11-01T19:10:32.309Z,9.80
2018-11-01T19:15:26.836Z,9.90
2018-11-01T19:20:21.338Z,9.90
2018-11-01T19:25:15.927Z,10.00
2018-11-01T19:30:12.153Z,10.00
2018-11-01T19:35:08.129Z,10.30
2018-11-01T19:40:03.001Z,10.20
2018-11-01T19:44:57.645Z,10.10
2018-11-01T19:49:52.111Z,10.00
2018-11-01T19:54:46.701Z,9.80
2018-11-01T19:59:41.143Z,9.70
2018-11-01T20:04:35.632Z,9.70
2018-11-01T20:09:30.143Z,9.80
2018-11-01T20:14:24.673Z,9.70
2018-11-01T20:19:19.269Z,9.50
2018-11-01T20:24:13.757Z,9.30
2018-11-01T20:29:08.456Z,9.10
2018-11-01T20:34:03.562Z,8.90
2018-11-01T20:38:58.140Z,8.90
2018-11-01T20:43:52.691Z,8.80
2018-11-01T20:48:47.595Z,8.70
2018-11-01T20:53:42.099Z,8.60
2018-11-01T20:58:36.588Z,8.50
2018-11-01T21:03:31.155Z,8.40
2018-11-01T21:08:25.780Z,8.40
2018-11-01T21:13:20.257Z,8.40
2018-11-01T21:18:14.697Z,8.50
2018-11-01T21:23:09.180Z,8.40
2018-11-01T21:28:03.632Z,8.40
2018-11-01T21:32:58.137Z,8.30
2018-11-01T21:37:52.672Z,8.20
2018-11-01T21:42:47.170Z,8.10
2018-11-01T21:47:42.017Z,8.10
2018-11-01T21:52:36.454Z,8.00
2018-11-01T21:57:31.010Z,8.10
2018-11-01T22:02:25.528Z,8.00
2018-11-01T22:07:19.989Z,8.00
2018-11-01T22:12:14.436Z,7.90
2018-11-01T22:17:08.971Z,7.90
2018-11-01T22:22:03.593Z,7.80
2018-11-01T22:26:58.042Z,7.80
2018-11-01T22:31:52.519Z,7.80
2018-11-01T22:36:47.083Z,7.90
2018-11-01T22:41:41.520Z,7.90
2018-11-01T22:46:35.967Z,7.80
2018-11-01T22:51:30.417Z,7.70
2018-11-01T22:56:24.928Z,7.70
2018-11-01T23:01:19.367Z,7.70
2018-11-01T23:06:13.831Z,7.60
2018-11-01T23:11:08.337Z,7.50
2018-11-01T23:16:02.797Z,7.40
2018-11-01T23:20:57.243Z,7.40
2018-11-01T23:25:51.676Z,7.30
2018-11-01T23:30:46.219Z,7.20
2018-11-01T23:35:40.685Z,7.20
2018-11-01T23:40:40.095Z,7.20
2018-11-01T23:45:39.737Z,7.20
2018-11-01T23:50:42.056Z,7.20
2018-11-01T23:55:36.509Z,7.20
